sensor_id;sensor_type;location;lat;lon;timestamp;P1;durP1;ratioP1;P2;durP2;ratioP2
21848;SDS011;11089;49.852;19.700;2023-07-13T00:02:39;8.52;;;5.03;;
21848;SDS011;11089;49.852;19.700;2023-07-13T00:05:40;5.72;;;4.80;;
21848;SDS011;11089;49.852;19.700;2023-07-13T00:08:42;5.32;;;4.03;;
21848;SDS011;11089;49.852;19.700;2023-07-13T00:11:44;6.13;;;4.43;;
21848;SDS011;11089;49.852;19.700;2023-07-13T00:14:47;8.52;;;4.50;;
21848;SDS011;11089;49.852;19.700;2023-07-13T00:17:50;5.72;;;4.18;;
21848;SDS011;11089;49.852;19.700;2023-07-13T00:20:53;5.10;;;4.30;;
21848;SDS011;11089;49.852;19.700;2023-07-13T00:23:53;5.65;;;4.15;;
21848;SDS011;11089;49.852;19.700;2023-07-13T00:26:54;7.13;;;4.68;;
21848;SDS011;11089;49.852;19.700;2023-07-13T00:29:57;7.85;;;4.65;;
21848;SDS011;11089;49.852;19.700;2023-07-13T00:32:59;5.75;;;4.03;;
21848;SDS011;11089;49.852;19.700;2023-07-13T00:36:01;4.95;;;4.13;;
21848;SDS011;11089;49.852;19.700;2023-07-13T00:39:03;7.88;;;4.38;;
21848;SDS011;11089;49.852;19.700;2023-07-13T00:42:04;8.95;;;4.53;;
21848;SDS011;11089;49.852;19.700;2023-07-13T00:48:13;6.93;;;4.43;;
21848;SDS011;11089;49.852;19.700;2023-07-13T00:51:18;7.57;;;4.85;;
21848;SDS011;11089;49.852;19.700;2023-07-13T00:54:24;6.25;;;4.53;;
21848;SDS011;11089;49.852;19.700;2023-07-13T00:57:32;5.63;;;4.53;;
21848;SDS011;11089;49.852;19.700;2023-07-13T01:00:34;6.63;;;4.30;;
21848;SDS011;11089;49.852;19.700;2023-07-13T01:03:36;6.18;;;4.30;;
21848;SDS011;11089;49.852;19.700;2023-07-13T01:06:38;7.60;;;4.18;;
21848;SDS011;11089;49.852;19.700;2023-07-13T01:09:41;7.22;;;4.28;;
21848;SDS011;11089;49.852;19.700;2023-07-13T01:12:42;5.65;;;4.18;;
21848;SDS011;11089;49.852;19.700;2023-07-13T01:15:44;9.27;;;5.45;;
21848;SDS011;11089;49.852;19.700;2023-07-13T01:18:47;9.32;;;4.38;;
21848;SDS011;11089;49.852;19.700;2023-07-13T01:21:51;4.70;;;4.20;;
21848;SDS011;11089;49.852;19.700;2023-07-13T01:24:53;6.97;;;4.47;;
21848;SDS011;11089;49.852;19.700;2023-07-13T01:27:55;7.57;;;4.07;;
21848;SDS011;11089;49.852;19.700;2023-07-13T01:30:56;7.45;;;3.80;;
21848;SDS011;11089;49.852;19.700;2023-07-13T01:33:58;6.75;;;3.38;;
21848;SDS011;11089;49.852;19.700;2023-07-13T01:36:59;6.35;;;3.67;;
21848;SDS011;11089;49.852;19.700;2023-07-13T01:40:00;5.38;;;3.55;;
21848;SDS011;11089;49.852;19.700;2023-07-13T01:43:03;4.38;;;3.50;;
21848;SDS011;11089;49.852;19.700;2023-07-13T01:46:04;4.82;;;3.58;;
21848;SDS011;11089;49.852;19.700;2023-07-13T01:49:05;4.40;;;3.30;;
21848;SDS011;11089;49.852;19.700;2023-07-13T01:52:06;5.13;;;3.63;;
21848;SDS011;11089;49.852;19.700;2023-07-13T01:55:07;6.40;;;4.05;;
21848;SDS011;11089;49.852;19.700;2023-07-13T01:58:09;6.28;;;3.85;;
21848;SDS011;11089;49.852;19.700;2023-07-13T02:01:10;5.32;;;3.50;;
21848;SDS011;11089;49.852;19.700;2023-07-13T02:04:10;7.47;;;4.13;;
21848;SDS011;11089;49.852;19.700;2023-07-13T02:07:11;5.28;;;4.05;;
21848;SDS011;11089;49.852;19.700;2023-07-13T02:10:12;4.88;;;3.92;;
21848;SDS011;11089;49.852;19.700;2023-07-13T02:13:14;7.60;;;4.22;;
21848;SDS011;11089;49.852;19.700;2023-07-13T02:16:15;7.93;;;4.40;;
21848;SDS011;11089;49.852;19.700;2023-07-13T02:19:15;8.23;;;4.18;;
21848;SDS011;11089;49.852;19.700;2023-07-13T02:22:16;5.93;;;4.05;;
21848;SDS011;11089;49.852;19.700;2023-07-13T02:25:17;6.57;;;4.70;;
21848;SDS011;11089;49.852;19.700;2023-07-13T02:28:18;5.70;;;4.07;;
21848;SDS011;11089;49.852;19.700;2023-07-13T02:31:19;7.45;;;4.40;;
21848;SDS011;11089;49.852;19.700;2023-07-13T02:34:20;6.38;;;4.28;;
21848;SDS011;11089;49.852;19.700;2023-07-13T02:37:21;6.45;;;4.57;;
21848;SDS011;11089;49.852;19.700;2023-07-13T02:40:22;7.43;;;4.00;;
21848;SDS011;11089;49.852;19.700;2023-07-13T02:43:23;7.15;;;4.38;;
21848;SDS011;11089;49.852;19.700;2023-07-13T02:46:24;5.45;;;3.83;;
21848;SDS011;11089;49.852;19.700;2023-07-13T02:49:26;5.78;;;4.20;;
21848;SDS011;11089;49.852;19.700;2023-07-13T02:52:27;5.95;;;4.32;;
21848;SDS011;11089;49.852;19.700;2023-07-13T02:55:28;5.78;;;3.92;;
21848;SDS011;11089;49.852;19.700;2023-07-13T02:58:28;6.15;;;4.18;;
21848;SDS011;11089;49.852;19.700;2023-07-13T03:01:29;6.05;;;3.63;;
21848;SDS011;11089;49.852;19.700;2023-07-13T03:04:34;5.93;;;4.30;;
21848;SDS011;11089;49.852;19.700;2023-07-13T03:07:36;6.45;;;3.85;;
21848;SDS011;11089;49.852;19.700;2023-07-13T03:10:37;8.32;;;4.05;;
21848;SDS011;11089;49.852;19.700;2023-07-13T03:13:40;4.53;;;3.30;;
21848;SDS011;11089;49.852;19.700;2023-07-13T03:16:42;6.57;;;3.80;;
21848;SDS011;11089;49.852;19.700;2023-07-13T03:19:42;4.75;;;3.80;;
21848;SDS011;11089;49.852;19.700;2023-07-13T03:22:44;6.38;;;4.40;;
21848;SDS011;11089;49.852;19.700;2023-07-13T03:25:45;7.38;;;4.00;;
21848;SDS011;11089;49.852;19.700;2023-07-13T03:28:46;6.07;;;4.22;;
21848;SDS011;11089;49.852;19.700;2023-07-13T03:31:47;6.72;;;4.95;;
21848;SDS011;11089;49.852;19.700;2023-07-13T03:34:48;6.90;;;4.78;;
21848;SDS011;11089;49.852;19.700;2023-07-13T03:37:49;7.65;;;4.32;;
21848;SDS011;11089;49.852;19.700;2023-07-13T03:40:51;5.68;;;4.35;;
21848;SDS011;11089;49.852;19.700;2023-07-13T03:43:53;5.65;;;3.85;;
21848;SDS011;11089;49.852;19.700;2023-07-13T03:46:54;4.80;;;4.30;;
21848;SDS011;11089;49.852;19.700;2023-07-13T03:49:55;5.38;;;4.20;;
21848;SDS011;11089;49.852;19.700;2023-07-13T03:52:57;5.45;;;4.07;;
21848;SDS011;11089;49.852;19.700;2023-07-13T03:55:58;6.75;;;3.95;;
21848;SDS011;11089;49.852;19.700;2023-07-13T03:58:59;6.28;;;4.22;;
21848;SDS011;11089;49.852;19.700;2023-07-13T04:02:01;7.65;;;3.88;;
21848;SDS011;11089;49.852;19.700;2023-07-13T04:05:04;4.97;;;3.67;;
21848;SDS011;11089;49.852;19.700;2023-07-13T04:08:06;5.95;;;4.10;;
21848;SDS011;11089;49.852;19.700;2023-07-13T04:11:07;8.07;;;3.92;;
21848;SDS011;11089;49.852;19.700;2023-07-13T04:14:08;4.88;;;3.55;;
21848;SDS011;11089;49.852;19.700;2023-07-13T04:17:09;5.13;;;3.83;;
21848;SDS011;11089;49.852;19.700;2023-07-13T04:20:10;5.28;;;3.67;;
21848;SDS011;11089;49.852;19.700;2023-07-13T04:23:11;8.13;;;3.80;;
21848;SDS011;11089;49.852;19.700;2023-07-13T04:26:13;5.47;;;4.13;;
21848;SDS011;11089;49.852;19.700;2023-07-13T04:29:14;5.85;;;4.03;;
21848;SDS011;11089;49.852;19.700;2023-07-13T04:32:15;5.38;;;3.88;;
21848;SDS011;11089;49.852;19.700;2023-07-13T04:35:16;8.02;;;3.65;;
21848;SDS011;11089;49.852;19.700;2023-07-13T04:38:17;5.75;;;3.65;;
21848;SDS011;11089;49.852;19.700;2023-07-13T04:41:18;8.73;;;3.80;;
21848;SDS011;11089;49.852;19.700;2023-07-13T04:44:20;6.70;;;3.45;;
21848;SDS011;11089;49.852;19.700;2023-07-13T04:47:21;4.90;;;3.88;;
21848;SDS011;11089;49.852;19.700;2023-07-13T04:50:22;4.20;;;3.63;;
21848;SDS011;11089;49.852;19.700;2023-07-13T04:53:23;4.72;;;3.60;;
21848;SDS011;11089;49.852;19.700;2023-07-13T04:56:25;5.70;;;3.83;;
21848;SDS011;11089;49.852;19.700;2023-07-13T04:59:26;7.13;;;4.00;;
21848;SDS011;11089;49.852;19.700;2023-07-13T05:02:27;5.40;;;3.80;;
21848;SDS011;11089;49.852;19.700;2023-07-13T05:05:28;5.05;;;3.97;;
21848;SDS011;11089;49.852;19.700;2023-07-13T05:08:29;4.82;;;3.60;;
21848;SDS011;11089;49.852;19.700;2023-07-13T05:11:30;4.75;;;3.95;;
21848;SDS011;11089;49.852;19.700;2023-07-13T05:14:31;5.68;;;4.00;;
21848;SDS011;11089;49.852;19.700;2023-07-13T05:17:32;5.05;;;3.63;;
21848;SDS011;11089;49.852;19.700;2023-07-13T05:20:33;5.53;;;4.07;;
21848;SDS011;11089;49.852;19.700;2023-07-13T05:23:34;9.13;;;3.97;;
21848;SDS011;11089;49.852;19.700;2023-07-13T05:26:36;5.25;;;3.97;;
21848;SDS011;11089;49.852;19.700;2023-07-13T05:29:37;4.72;;;3.92;;
21848;SDS011;11089;49.852;19.700;2023-07-13T05:32:38;7.68;;;3.53;;
21848;SDS011;11089;49.852;19.700;2023-07-13T05:35:39;6.03;;;4.32;;
21848;SDS011;11089;49.852;19.700;2023-07-13T05:38:40;5.68;;;3.83;;
21848;SDS011;11089;49.852;19.700;2023-07-13T05:41:41;7.18;;;4.40;;
21848;SDS011;11089;49.852;19.700;2023-07-13T05:44:42;5.85;;;4.75;;
21848;SDS011;11089;49.852;19.700;2023-07-13T05:47:43;8.60;;;4.00;;
21848;SDS011;11089;49.852;19.700;2023-07-13T05:50:44;6.70;;;3.90;;
21848;SDS011;11089;49.852;19.700;2023-07-13T05:53:45;6.68;;;4.10;;
21848;SDS011;11089;49.852;19.700;2023-07-13T05:56:46;7.32;;;4.00;;
21848;SDS011;11089;49.852;19.700;2023-07-13T05:59:47;5.05;;;4.25;;
21848;SDS011;11089;49.852;19.700;2023-07-13T06:02:48;5.88;;;4.03;;
21848;SDS011;11089;49.852;19.700;2023-07-13T06:05:49;7.70;;;4.35;;
21848;SDS011;11089;49.852;19.700;2023-07-13T06:08:50;4.10;;;3.60;;
21848;SDS011;11089;49.852;19.700;2023-07-13T06:11:50;4.93;;;3.58;;
21848;SDS011;11089;49.852;19.700;2023-07-13T06:14:51;4.88;;;3.78;;
21848;SDS011;11089;49.852;19.700;2023-07-13T06:17:52;5.10;;;3.92;;
21848;SDS011;11089;49.852;19.700;2023-07-13T06:20:53;5.63;;;3.55;;
21848;SDS011;11089;49.852;19.700;2023-07-13T06:23:54;5.53;;;3.60;;
21848;SDS011;11089;49.852;19.700;2023-07-13T06:26:55;5.20;;;3.60;;
21848;SDS011;11089;49.852;19.700;2023-07-13T06:29:56;5.25;;;4.00;;
21848;SDS011;11089;49.852;19.700;2023-07-13T06:32:57;5.80;;;4.00;;
21848;SDS011;11089;49.852;19.700;2023-07-13T06:35:58;4.63;;;3.80;;
21848;SDS011;11089;49.852;19.700;2023-07-13T06:38:59;5.97;;;4.18;;
21848;SDS011;11089;49.852;19.700;2023-07-13T06:42:00;7.13;;;3.90;;
21848;SDS011;11089;49.852;19.700;2023-07-13T06:45:02;6.72;;;3.97;;
21848;SDS011;11089;49.852;19.700;2023-07-13T06:48:03;7.20;;;3.67;;
21848;SDS011;11089;49.852;19.700;2023-07-13T06:51:04;5.22;;;3.80;;
21848;SDS011;11089;49.852;19.700;2023-07-13T06:54:05;5.82;;;3.50;;
21848;SDS011;11089;49.852;19.700;2023-07-13T06:57:06;6.53;;;4.00;;
21848;SDS011;11089;49.852;19.700;2023-07-13T07:00:07;5.40;;;3.60;;
21848;SDS011;11089;49.852;19.700;2023-07-13T07:03:10;5.13;;;4.38;;
21848;SDS011;11089;49.852;19.700;2023-07-13T07:06:17;4.82;;;4.00;;
21848;SDS011;11089;49.852;19.700;2023-07-13T07:09:20;6.35;;;4.22;;
21848;SDS011;11089;49.852;19.700;2023-07-13T07:12:21;4.35;;;3.90;;
21848;SDS011;11089;49.852;19.700;2023-07-13T07:15:22;5.53;;;3.60;;
21848;SDS011;11089;49.852;19.700;2023-07-13T07:18:23;4.40;;;3.80;;
21848;SDS011;11089;49.852;19.700;2023-07-13T07:21:24;16.63;;;4.38;;
21848;SDS011;11089;49.852;19.700;2023-07-13T07:24:26;5.10;;;3.90;;
21848;SDS011;11089;49.852;19.700;2023-07-13T07:27:27;6.43;;;4.13;;
21848;SDS011;11089;49.852;19.700;2023-07-13T07:30:28;11.13;;;4.55;;
21848;SDS011;11089;49.852;19.700;2023-07-13T07:33:29;7.55;;;3.83;;
21848;SDS011;11089;49.852;19.700;2023-07-13T07:36:30;6.50;;;4.32;;
21848;SDS011;11089;49.852;19.700;2023-07-13T07:39:31;5.72;;;4.47;;
21848;SDS011;11089;49.852;19.700;2023-07-13T07:42:32;6.15;;;3.72;;
21848;SDS011;11089;49.852;19.700;2023-07-13T07:45:33;7.53;;;3.97;;
21848;SDS011;11089;49.852;19.700;2023-07-13T07:48:34;6.75;;;3.90;;
21848;SDS011;11089;49.852;19.700;2023-07-13T07:51:35;5.38;;;3.70;;
21848;SDS011;11089;49.852;19.700;2023-07-13T07:54:37;5.53;;;4.60;;
21848;SDS011;11089;49.852;19.700;2023-07-13T07:57:38;5.43;;;3.60;;
21848;SDS011;11089;49.852;19.700;2023-07-13T08:00:38;5.15;;;4.05;;
21848;SDS011;11089;49.852;19.700;2023-07-13T08:03:40;5.10;;;4.10;;
21848;SDS011;11089;49.852;19.700;2023-07-13T08:06:41;6.80;;;4.72;;
21848;SDS011;11089;49.852;19.700;2023-07-13T08:09:42;7.50;;;4.57;;
21848;SDS011;11089;49.852;19.700;2023-07-13T08:12:43;5.05;;;4.05;;
21848;SDS011;11089;49.852;19.700;2023-07-13T08:15:44;6.38;;;4.10;;
21848;SDS011;11089;49.852;19.700;2023-07-13T08:18:46;6.55;;;4.28;;
21848;SDS011;11089;49.852;19.700;2023-07-13T08:21:47;4.88;;;3.70;;
21848;SDS011;11089;49.852;19.700;2023-07-13T08:24:49;9.00;;;3.78;;
21848;SDS011;11089;49.852;19.700;2023-07-13T08:27:56;6.35;;;3.90;;
21848;SDS011;11089;49.852;19.700;2023-07-13T08:31:00;5.70;;;4.80;;
21848;SDS011;11089;49.852;19.700;2023-07-13T08:34:02;9.43;;;5.13;;
21848;SDS011;11089;49.852;19.700;2023-07-13T08:37:03;9.25;;;4.60;;
21848;SDS011;11089;49.852;19.700;2023-07-13T08:40:05;8.13;;;4.68;;
21848;SDS011;11089;49.852;19.700;2023-07-13T08:43:11;6.53;;;4.43;;
21848;SDS011;11089;49.852;19.700;2023-07-13T08:46:18;4.78;;;4.13;;
21848;SDS011;11089;49.852;19.700;2023-07-13T08:49:24;6.30;;;4.85;;
21848;SDS011;11089;49.852;19.700;2023-07-13T08:55:37;6.60;;;4.30;;
21848;SDS011;11089;49.852;19.700;2023-07-13T08:58:39;6.43;;;4.00;;
21848;SDS011;11089;49.852;19.700;2023-07-13T09:05:00;7.50;;;4.22;;
21848;SDS011;11089;49.852;19.700;2023-07-13T09:14:51;5.00;;;3.95;;
21848;SDS011;11089;49.852;19.700;2023-07-13T09:17:56;5.35;;;4.43;;
21848;SDS011;11089;49.852;19.700;2023-07-13T09:27:47;7.32;;;4.32;;
21848;SDS011;11089;49.852;19.700;2023-07-13T09:31:11;7.35;;;4.88;;
21848;SDS011;11089;49.852;19.700;2023-07-13T09:34:13;6.03;;;4.28;;
21848;SDS011;11089;49.852;19.700;2023-07-13T09:37:15;9.18;;;4.43;;
21848;SDS011;11089;49.852;19.700;2023-07-13T09:47:24;4.70;;;4.20;;
21848;SDS011;11089;49.852;19.700;2023-07-13T09:50:30;5.47;;;4.88;;
21848;SDS011;11089;49.852;19.700;2023-07-13T09:53:31;8.77;;;5.25;;
21848;SDS011;11089;49.852;19.700;2023-07-13T09:56:32;7.53;;;4.82;;
21848;SDS011;11089;49.852;19.700;2023-07-13T09:59:34;6.60;;;5.28;;
21848;SDS011;11089;49.852;19.700;2023-07-13T10:02:39;7.55;;;4.97;;
21848;SDS011;11089;49.852;19.700;2023-07-13T10:05:42;5.45;;;4.95;;
21848;SDS011;11089;49.852;19.700;2023-07-13T10:08:45;6.50;;;5.47;;
21848;SDS011;11089;49.852;19.700;2023-07-13T10:11:47;6.00;;;5.05;;
21848;SDS011;11089;49.852;19.700;2023-07-13T10:14:52;8.98;;;5.32;;
21848;SDS011;11089;49.852;19.700;2023-07-13T10:17:55;9.13;;;5.93;;
21848;SDS011;11089;49.852;19.700;2023-07-13T10:21:09;9.65;;;6.72;;
21848;SDS011;11089;49.852;19.700;2023-07-13T10:24:17;10.00;;;7.05;;
21848;SDS011;11089;49.852;19.700;2023-07-13T10:27:56;8.77;;;7.05;;
21848;SDS011;11089;49.852;19.700;2023-07-13T10:30:59;11.73;;;7.13;;
21848;SDS011;11089;49.852;19.700;2023-07-13T10:34:01;8.48;;;6.95;;
21848;SDS011;11089;49.852;19.700;2023-07-13T10:37:02;9.18;;;7.18;;
21848;SDS011;11089;49.852;19.700;2023-07-13T10:40:12;13.23;;;7.47;;
21848;SDS011;11089;49.852;19.700;2023-07-13T10:43:18;15.48;;;7.97;;
21848;SDS011;11089;49.852;19.700;2023-07-13T10:46:25;11.82;;;8.20;;
21848;SDS011;11089;49.852;19.700;2023-07-13T10:49:29;14.77;;;8.10;;
21848;SDS011;11089;49.852;19.700;2023-07-13T10:52:40;9.93;;;8.20;;
21848;SDS011;11089;49.852;19.700;2023-07-13T10:59:01;13.18;;;7.53;;
21848;SDS011;11089;49.852;19.700;2023-07-13T11:02:21;24.38;;;7.20;;
21848;SDS011;11089;49.852;19.700;2023-07-13T11:05:28;17.08;;;7.90;;
21848;SDS011;11089;49.852;19.700;2023-07-13T11:08:33;15.02;;;8.05;;
21848;SDS011;11089;49.852;19.700;2023-07-13T11:11:39;10.57;;;7.68;;
21848;SDS011;11089;49.852;19.700;2023-07-13T11:14:44;11.93;;;6.60;;
21848;SDS011;11089;49.852;19.700;2023-07-13T11:18:12;9.48;;;6.10;;
21848;SDS011;11089;49.852;19.700;2023-07-13T11:21:23;9.75;;;5.00;;
21848;SDS011;11089;49.852;19.700;2023-07-13T11:30:39;12.63;;;5.15;;
21848;SDS011;11089;49.852;19.700;2023-07-13T11:33:53;5.35;;;3.50;;
21848;SDS011;11089;49.852;19.700;2023-07-13T11:36:56;7.80;;;3.83;;
21848;SDS011;11089;49.852;19.700;2023-07-13T11:39:59;5.30;;;3.83;;
21848;SDS011;11089;49.852;19.700;2023-07-13T11:43:00;8.18;;;3.80;;
21848;SDS011;11089;49.852;19.700;2023-07-13T11:46:12;7.30;;;3.50;;
21848;SDS011;11089;49.852;19.700;2023-07-13T11:49:21;3.63;;;3.13;;
21848;SDS011;11089;49.852;19.700;2023-07-13T11:52:30;12.60;;;3.35;;
21848;SDS011;11089;49.852;19.700;2023-07-13T11:55:37;8.15;;;3.30;;
21848;SDS011;11089;49.852;19.700;2023-07-13T11:58:39;6.78;;;3.92;;
21848;SDS011;11089;49.852;19.700;2023-07-13T12:01:44;5.18;;;2.95;;
21848;SDS011;11089;49.852;19.700;2023-07-13T12:04:49;5.55;;;2.95;;
21848;SDS011;11089;49.852;19.700;2023-07-13T12:07:52;4.68;;;3.50;;
21848;SDS011;11089;49.852;19.700;2023-07-13T12:10:59;3.97;;;2.83;;
21848;SDS011;11089;49.852;19.700;2023-07-13T12:14:05;6.93;;;3.45;;
21848;SDS011;11089;49.852;19.700;2023-07-13T12:17:11;6.50;;;2.80;;
21848;SDS011;11089;49.852;19.700;2023-07-13T12:20:25;6.97;;;3.03;;
21848;SDS011;11089;49.852;19.700;2023-07-13T12:23:35;5.07;;;3.13;;
21848;SDS011;11089;49.852;19.700;2023-07-13T12:26:36;4.22;;;2.78;;
21848;SDS011;11089;49.852;19.700;2023-07-13T12:29:37;12.50;;;3.25;;
21848;SDS011;11089;49.852;19.700;2023-07-13T12:32:38;2.63;;;2.30;;
21848;SDS011;11089;49.852;19.700;2023-07-13T12:35:43;4.30;;;2.50;;
21848;SDS011;11089;49.852;19.700;2023-07-13T12:38:49;3.15;;;2.30;;
21848;SDS011;11089;49.852;19.700;2023-07-13T12:41:52;5.93;;;2.78;;
21848;SDS011;11089;49.852;19.700;2023-07-13T12:44:59;4.90;;;3.10;;
21848;SDS011;11089;49.852;19.700;2023-07-13T12:48:05;4.63;;;2.25;;
21848;SDS011;11089;49.852;19.700;2023-07-13T12:51:16;3.85;;;2.33;;
21848;SDS011;11089;49.852;19.700;2023-07-13T12:54:21;4.00;;;2.33;;
21848;SDS011;11089;49.852;19.700;2023-07-13T12:57:22;4.18;;;2.30;;
21848;SDS011;11089;49.852;19.700;2023-07-13T13:00:28;5.60;;;2.35;;
21848;SDS011;11089;49.852;19.700;2023-07-13T13:03:35;5.05;;;2.42;;
21848;SDS011;11089;49.852;19.700;2023-07-13T13:06:39;2.40;;;2.05;;
21848;SDS011;11089;49.852;19.700;2023-07-13T13:09:42;3.85;;;2.28;;
21848;SDS011;11089;49.852;19.700;2023-07-13T13:12:43;3.78;;;2.58;;
21848;SDS011;11089;49.852;19.700;2023-07-13T13:15:44;2.90;;;2.30;;
21848;SDS011;11089;49.852;19.700;2023-07-13T13:18:45;3.45;;;2.20;;
21848;SDS011;11089;49.852;19.700;2023-07-13T13:21:46;4.30;;;2.38;;
21848;SDS011;11089;49.852;19.700;2023-07-13T13:24:47;5.43;;;3.55;;
21848;SDS011;11089;49.852;19.700;2023-07-13T13:27:49;8.23;;;3.55;;
21848;SDS011;11089;49.852;19.700;2023-07-13T13:30:50;4.55;;;3.50;;
21848;SDS011;11089;49.852;19.700;2023-07-13T13:33:51;6.10;;;3.95;;
21848;SDS011;11089;49.852;19.700;2023-07-13T13:36:52;6.75;;;4.03;;
21848;SDS011;11089;49.852;19.700;2023-07-13T13:39:54;9.15;;;6.65;;
21848;SDS011;11089;49.852;19.700;2023-07-13T13:42:55;10.13;;;5.80;;
21848;SDS011;11089;49.852;19.700;2023-07-13T13:45:58;7.93;;;5.10;;
21848;SDS011;11089;49.852;19.700;2023-07-13T13:49:02;5.18;;;3.83;;
21848;SDS011;11089;49.852;19.700;2023-07-13T13:52:03;8.50;;;4.07;;
21848;SDS011;11089;49.852;19.700;2023-07-13T13:55:11;5.18;;;3.10;;
21848;SDS011;11089;49.852;19.700;2023-07-13T13:58:13;4.72;;;3.03;;
21848;SDS011;11089;49.852;19.700;2023-07-13T14:01:17;3.10;;;2.80;;
21848;SDS011;11089;49.852;19.700;2023-07-13T14:04:21;5.43;;;3.05;;
21848;SDS011;11089;49.852;19.700;2023-07-13T14:07:22;3.25;;;2.72;;
21848;SDS011;11089;49.852;19.700;2023-07-13T14:10:23;3.55;;;3.08;;
21848;SDS011;11089;49.852;19.700;2023-07-13T14:13:30;4.15;;;3.17;;
21848;SDS011;11089;49.852;19.700;2023-07-13T14:16:36;5.55;;;3.08;;
21848;SDS011;11089;49.852;19.700;2023-07-13T14:19:37;3.33;;;2.67;;
21848;SDS011;11089;49.852;19.700;2023-07-13T14:22:38;4.32;;;2.90;;
21848;SDS011;11089;49.852;19.700;2023-07-13T14:25:39;4.43;;;3.00;;
21848;SDS011;11089;49.852;19.700;2023-07-13T14:28:41;3.30;;;2.88;;
21848;SDS011;11089;49.852;19.700;2023-07-13T14:31:44;4.18;;;2.85;;
21848;SDS011;11089;49.852;19.700;2023-07-13T14:34:45;3.08;;;2.78;;
21848;SDS011;11089;49.852;19.700;2023-07-13T14:37:46;3.30;;;3.00;;
21848;SDS011;11089;49.852;19.700;2023-07-13T14:40:47;3.88;;;3.00;;
21848;SDS011;11089;49.852;19.700;2023-07-13T14:43:48;4.13;;;3.03;;
21848;SDS011;11089;49.852;19.700;2023-07-13T14:46:49;4.50;;;2.70;;
21848;SDS011;11089;49.852;19.700;2023-07-13T14:49:52;6.70;;;2.97;;
21848;SDS011;11089;49.852;19.700;2023-07-13T14:52:53;3.75;;;2.55;;
21848;SDS011;11089;49.852;19.700;2023-07-13T14:55:53;8.00;;;3.50;;
21848;SDS011;11089;49.852;19.700;2023-07-13T14:58:54;3.88;;;2.63;;
21848;SDS011;11089;49.852;19.700;2023-07-13T15:01:55;3.30;;;2.55;;
21848;SDS011;11089;49.852;19.700;2023-07-13T15:04:57;4.45;;;2.95;;
21848;SDS011;11089;49.852;19.700;2023-07-13T15:07:59;4.85;;;2.80;;
21848;SDS011;11089;49.852;19.700;2023-07-13T15:11:04;5.00;;;3.08;;
21848;SDS011;11089;49.852;19.700;2023-07-13T15:14:05;5.53;;;2.97;;
21848;SDS011;11089;49.852;19.700;2023-07-13T15:17:08;3.92;;;3.53;;
21848;SDS011;11089;49.852;19.700;2023-07-13T15:20:27;6.15;;;3.10;;
21848;SDS011;11089;49.852;19.700;2023-07-13T15:23:34;4.38;;;3.13;;
21848;SDS011;11089;49.852;19.700;2023-07-13T15:26:35;3.30;;;3.00;;
21848;SDS011;11089;49.852;19.700;2023-07-13T15:29:36;3.65;;;3.10;;
21848;SDS011;11089;49.852;19.700;2023-07-13T15:32:37;4.68;;;2.60;;
21848;SDS011;11089;49.852;19.700;2023-07-13T15:35:39;4.63;;;2.72;;
21848;SDS011;11089;49.852;19.700;2023-07-13T15:38:41;5.20;;;2.90;;
21848;SDS011;11089;49.852;19.700;2023-07-13T15:41:44;4.57;;;3.10;;
21848;SDS011;11089;49.852;19.700;2023-07-13T15:44:47;5.05;;;2.83;;
21848;SDS011;11089;49.852;19.700;2023-07-13T15:47:48;4.40;;;2.70;;
21848;SDS011;11089;49.852;19.700;2023-07-13T15:50:51;4.22;;;2.55;;
21848;SDS011;11089;49.852;19.700;2023-07-13T15:53:54;3.75;;;2.42;;
21848;SDS011;11089;49.852;19.700;2023-07-13T15:57:04;5.72;;;2.50;;
21848;SDS011;11089;49.852;19.700;2023-07-13T16:03:25;4.22;;;2.58;;
21848;SDS011;11089;49.852;19.700;2023-07-13T16:06:30;5.35;;;2.65;;
21848;SDS011;11089;49.852;19.700;2023-07-13T16:09:34;4.68;;;2.92;;
21848;SDS011;11089;49.852;19.700;2023-07-13T16:12:35;4.00;;;2.70;;
21848;SDS011;11089;49.852;19.700;2023-07-13T16:15:37;3.88;;;3.08;;
21848;SDS011;11089;49.852;19.700;2023-07-13T16:18:38;5.63;;;3.25;;
21848;SDS011;11089;49.852;19.700;2023-07-13T16:21:43;6.82;;;3.20;;
21848;SDS011;11089;49.852;19.700;2023-07-13T16:24:46;4.47;;;2.75;;
21848;SDS011;11089;49.852;19.700;2023-07-13T16:27:47;4.82;;;2.95;;
21848;SDS011;11089;49.852;19.700;2023-07-13T16:30:48;5.15;;;3.25;;
21848;SDS011;11089;49.852;19.700;2023-07-13T16:33:50;4.35;;;3.10;;
21848;SDS011;11089;49.852;19.700;2023-07-13T16:36:53;7.63;;;3.30;;
21848;SDS011;11089;49.852;19.700;2023-07-13T16:39:55;5.00;;;3.30;;
21848;SDS011;11089;49.852;19.700;2023-07-13T16:42:58;4.53;;;2.88;;
21848;SDS011;11089;49.852;19.700;2023-07-13T16:46:00;6.00;;;3.08;;
21848;SDS011;11089;49.852;19.700;2023-07-13T16:49:04;3.97;;;3.00;;
21848;SDS011;11089;49.852;19.700;2023-07-13T16:52:19;3.75;;;3.00;;
21848;SDS011;11089;49.852;19.700;2023-07-13T16:55:22;4.05;;;2.83;;
21848;SDS011;11089;49.852;19.700;2023-07-13T16:58:28;7.70;;;3.40;;
21848;SDS011;11089;49.852;19.700;2023-07-13T17:01:31;7.00;;;2.85;;
21848;SDS011;11089;49.852;19.700;2023-07-13T17:04:32;5.25;;;3.28;;
21848;SDS011;11089;49.852;19.700;2023-07-13T17:07:34;5.07;;;3.30;;
21848;SDS011;11089;49.852;19.700;2023-07-13T17:10:35;5.63;;;3.30;;
21848;SDS011;11089;49.852;19.700;2023-07-13T17:13:36;6.50;;;3.45;;
21848;SDS011;11089;49.852;19.700;2023-07-13T17:16:37;5.90;;;3.03;;
21848;SDS011;11089;49.852;19.700;2023-07-13T17:19:38;5.43;;;3.08;;
21848;SDS011;11089;49.852;19.700;2023-07-13T17:22:39;6.07;;;3.58;;
21848;SDS011;11089;49.852;19.700;2023-07-13T17:25:41;3.42;;;3.00;;
21848;SDS011;11089;49.852;19.700;2023-07-13T17:28:42;6.40;;;3.60;;
21848;SDS011;11089;49.852;19.700;2023-07-13T17:31:43;8.98;;;3.22;;
21848;SDS011;11089;49.852;19.700;2023-07-13T17:34:47;3.78;;;3.47;;
21848;SDS011;11089;49.852;19.700;2023-07-13T17:37:49;6.07;;;3.20;;
21848;SDS011;11089;49.852;19.700;2023-07-13T17:41:09;6.30;;;3.30;;
21848;SDS011;11089;49.852;19.700;2023-07-13T17:44:15;4.68;;;3.33;;
21848;SDS011;11089;49.852;19.700;2023-07-13T17:50:30;5.20;;;3.08;;
21848;SDS011;11089;49.852;19.700;2023-07-13T17:53:36;5.43;;;3.10;;
21848;SDS011;11089;49.852;19.700;2023-07-13T17:56:38;5.20;;;3.55;;
21848;SDS011;11089;49.852;19.700;2023-07-13T17:59:40;5.93;;;3.38;;
21848;SDS011;11089;49.852;19.700;2023-07-13T18:02:41;4.85;;;3.67;;
21848;SDS011;11089;49.852;19.700;2023-07-13T18:05:42;3.92;;;2.97;;
21848;SDS011;11089;49.852;19.700;2023-07-13T18:08:49;6.00;;;3.83;;
21848;SDS011;11089;49.852;19.700;2023-07-13T18:11:56;5.93;;;3.88;;
21848;SDS011;11089;49.852;19.700;2023-07-13T18:14:58;4.90;;;3.38;;
21848;SDS011;11089;49.852;19.700;2023-07-13T18:17:59;9.88;;;3.97;;
21848;SDS011;11089;49.852;19.700;2023-07-13T18:21:03;5.05;;;4.03;;
21848;SDS011;11089;49.852;19.700;2023-07-13T18:24:07;4.43;;;3.63;;
21848;SDS011;11089;49.852;19.700;2023-07-13T18:27:12;4.78;;;3.95;;
21848;SDS011;11089;49.852;19.700;2023-07-13T18:30:16;4.07;;;3.53;;
21848;SDS011;11089;49.852;19.700;2023-07-13T18:33:27;5.97;;;4.20;;
21848;SDS011;11089;49.852;19.700;2023-07-13T18:36:32;7.13;;;4.30;;
21848;SDS011;11089;49.852;19.700;2023-07-13T18:39:33;6.47;;;3.60;;
21848;SDS011;11089;49.852;19.700;2023-07-13T18:42:34;7.97;;;4.38;;
21848;SDS011;11089;49.852;19.700;2023-07-13T18:45:35;5.35;;;4.35;;
21848;SDS011;11089;49.852;19.700;2023-07-13T18:48:36;8.05;;;4.25;;
21848;SDS011;11089;49.852;19.700;2023-07-13T18:51:37;7.28;;;4.50;;